This is the latest recevied weather packets stored in our database for station/object K7GFH-13. If no packets are shown the sender has not sent any weather packets the latest 10 day(s).
| Time | Temp. | Humidity | Pressure | Rain* | Wind** | Luminosity | Snow |
|---|---|---|---|---|---|---|---|
| 1777707186 | 11.11° C | 84% | 1018.7 hPa | 0 mm | - | 0 W/m² | - |
| 1777706284 | 11.11° C | 83% | 1018.7 hPa | 0 mm | - | 0 W/m² | - |
| 1777705384 | 11.67° C | 82% | 1018.5 hPa | 0 mm | - | 0 W/m² | - |
| 1777704478 | 11.67° C | 81% | 1018.6 hPa | 0 mm | - | 0 W/m² | - |
| 1777703577 | 11.67° C | 80% | 1018.6 hPa | 0 mm | - | 0 W/m² | - |
| 1777702675 | 12.22° C | 81% | 1018.6 hPa | 0 mm | - | 0 W/m² | - |
| 1777701774 | 12.78° C | 79% | 1018.6 hPa | 0 mm | - | 0 W/m² | - |
| 1777700869 | 13.33° C | 78% | 1018.5 hPa | 0 mm | - | 0 W/m² | - |
| 1777699967 | 13.89° C | 75% | 1018.4 hPa | 0 mm | - | 0 W/m² | - |
| 1777699066 | 13.89° C | 74% | 1018.3 hPa | 0 mm | - | 0 W/m² | - |
| 1777698162 | 14.44° C | 73% | 1018.3 hPa | 0 mm | - | 0 W/m² | - |
| 1777697259 | 14.44° C | 74% | 1018.3 hPa | 0 mm | - | 0 W/m² | - |
| 1777696356 | 15° C | 72% | 1017.9 hPa | 0 mm | - | 0 W/m² | - |
| 1777695456 | 15.56° C | 71% | 1017.8 hPa | 0 mm | - | 0 W/m² | - |
| 1777694553 | 16.11° C | 68% | 1017.6 hPa | 0 mm | - | 0 W/m² | - |
| 1777693649 | 16.67° C | 68% | 1017 hPa | 0 mm | - | 0 W/m² | - |
| 1777692749 | 17.78° C | 66% | 1016.9 hPa | 0 mm | - | 0 W/m² | - |
| 1777691845 | 18.89° C | 58% | 1016.6 hPa | 0 mm | - | 2 W/m² | - |
| 1777690945 | 19.44° C | 55% | 1016.3 hPa | 0 mm | - | 6 W/m² | - |
| 1777690043 | 19.44° C | 55% | 1016.3 hPa | 0 mm | - | 10 W/m² | - |
| 1777689142 | 20° C | 61% | 1016.5 hPa | 0 mm | - | 18 W/m² | - |
| 1777688239 | 20° C | 59% | 1016.3 hPa | 0 mm | - | 28 W/m² | - |
| 1777673798 | 21.11° C | 55% | 1017 hPa | 0 mm | - | 572 W/m² | - |
| 1777672896 | 21.11° C | 54% | 1017.3 hPa | 0 mm | - | 509 W/m² | - |
| 1777671994 | 20.56° C | 56% | 1017.6 hPa | 0 mm | - | 560 W/m² | - |
* Rain latest hour (hover to see other rain measurements)
** Current wind speed in m/s (hover to see current wind gust speed)